createdAt,value
2018-06-25T00:01:59.150Z,90.04
2018-06-25T00:04:28.754Z,90.38
2018-06-25T00:06:58.261Z,90.54
2018-06-25T00:09:28.357Z,90.49
2018-06-25T00:11:58.309Z,90.17
2018-06-25T00:14:29.123Z,89.80
2018-06-25T00:16:58.588Z,89.58
2018-06-25T00:19:28.990Z,89.30
2018-06-25T00:21:58.234Z,89.53
2018-06-25T00:24:28.293Z,89.61
2018-06-25T00:26:58.231Z,89.41
2018-06-25T00:29:27.886Z,89.41
2018-06-25T00:31:57.406Z,89.90
2018-06-25T00:34:26.870Z,89.49
2018-06-25T00:36:58.319Z,89.26
2018-06-25T00:39:29.401Z,89.61
2018-06-25T00:41:59.159Z,90.14
2018-06-25T00:44:28.344Z,89.72
2018-06-25T00:46:57.825Z,89.74
2018-06-25T00:49:28.130Z,90.18
2018-06-25T00:51:57.684Z,89.78
2018-06-25T00:54:27.001Z,90.56
2018-06-25T00:56:56.917Z,89.59
2018-06-25T00:59:43.593Z,89.51
2018-06-25T01:02:13.569Z,89.99
2018-06-25T01:04:43.852Z,90.44
2018-06-25T01:07:13.942Z,90.14
2018-06-25T01:09:43.744Z,89.63
2018-06-25T01:12:14.100Z,89.79
2018-06-25T01:14:44.181Z,90.00
2018-06-25T01:17:15.848Z,89.41
2018-06-25T01:19:45.358Z,89.63
2018-06-25T01:22:15.206Z,89.61
2018-06-25T01:24:45.557Z,89.83
2018-06-25T01:27:17.458Z,90.09
2018-06-25T01:29:47.990Z,90.08
2018-06-25T01:32:18.209Z,89.96
2018-06-25T01:34:48.349Z,90.37
2018-06-25T01:37:17.865Z,90.14
2018-06-25T01:39:47.330Z,89.96
2018-06-25T01:42:16.848Z,89.91
2018-06-25T01:44:46.397Z,90.72
2018-06-25T01:47:15.842Z,90.41
2018-06-25T01:49:45.462Z,90.68
2018-06-25T01:52:17.147Z,90.96
2018-06-25T01:54:46.696Z,90.99
2018-06-25T01:57:16.138Z,91.24
2018-06-25T01:59:45.633Z,91.20
2018-06-25T02:02:15.198Z,90.90
2018-06-25T02:04:49.086Z,91.63
2018-06-25T02:07:18.617Z,90.90
2018-06-25T02:09:47.801Z,91.10
2018-06-25T02:12:17.384Z,91.19
2018-06-25T02:14:47.013Z,91.02
2018-06-25T02:17:16.594Z,91.09
2018-06-25T02:19:46.417Z,90.53
2018-06-25T02:22:16.240Z,90.97
2018-06-25T02:24:45.953Z,90.85
2018-06-25T02:27:15.820Z,91.01
2018-06-25T02:29:45.272Z,91.15
2018-06-25T02:32:15.137Z,90.85
2018-06-25T02:34:45.820Z,91.10
2018-06-25T02:37:15.431Z,91.39
2018-06-25T02:39:45.012Z,91.14
2018-06-25T02:42:15.454Z,90.93
2018-06-25T02:44:49.716Z,91.17
2018-06-25T02:47:19.082Z,91.25
2018-06-25T02:49:48.644Z,90.81
2018-06-25T02:52:18.210Z,90.48
2018-06-25T02:54:50.971Z,91.11
2018-06-25T02:57:20.880Z,90.68
2018-06-25T02:59:50.401Z,90.67
2018-06-25T03:02:19.893Z,91.08
2018-06-25T03:04:49.353Z,91.06
2018-06-25T03:07:22.924Z,90.32
2018-06-25T03:09:52.496Z,90.90
2018-06-25T03:12:22.097Z,90.51
2018-06-25T03:14:52.462Z,91.05
2018-06-25T03:17:22.564Z,90.34
2018-06-25T03:19:54.400Z,91.00
2018-06-25T03:22:23.934Z,91.07
2018-06-25T03:24:53.665Z,90.49
2018-06-25T03:27:23.487Z,90.74
2018-06-25T03:29:53.852Z,90.54
2018-06-25T03:32:23.889Z,90.53
2018-06-25T03:34:53.629Z,90.82
2018-06-25T03:37:23.136Z,90.69
2018-06-25T03:39:53.336Z,89.94
2018-06-25T03:42:22.886Z,89.75
2018-06-25T03:44:52.290Z,90.15
2018-06-25T03:47:24.438Z,90.34
2018-06-25T03:49:57.408Z,90.30
2018-06-25T03:52:27.865Z,90.58
2018-06-25T03:54:57.337Z,89.63
2018-06-25T03:57:27.374Z,89.92
2018-06-25T03:59:57.451Z,90.30
2018-06-25T04:02:26.892Z,89.39
2018-06-25T04:04:56.553Z,89.51
2018-06-25T04:07:25.983Z,90.50
2018-06-25T04:09:55.625Z,90.06
2018-06-25T04:12:25.241Z,89.87
2018-06-25T04:14:55.718Z,89.88
2018-06-25T04:17:25.672Z,89.88
2018-06-25T04:19:55.296Z,90.34
2018-06-25T04:22:25.517Z,89.80
2018-06-25T04:24:55.252Z,89.07
2018-06-25T04:27:26.180Z,89.00
2018-06-25T04:29:56.419Z,88.89
2018-06-25T04:32:26.009Z,88.98
2018-06-25T04:34:55.428Z,88.98
2018-06-25T04:37:24.930Z,89.25
2018-06-25T04:39:54.397Z,88.94
2018-06-25T04:42:23.860Z,88.51
2018-06-25T04:44:53.350Z,88.30
2018-06-25T04:47:23.415Z,88.14
2018-06-25T04:49:53.012Z,88.24
2018-06-25T04:52:22.483Z,88.05
2018-06-25T04:54:53.822Z,88.11
2018-06-25T04:57:23.605Z,87.93
2018-06-25T04:59:53.129Z,87.91
2018-06-25T05:02:24.377Z,88.27
2018-06-25T05:04:54.923Z,88.39
2018-06-25T05:07:24.508Z,88.41
2018-06-25T05:09:53.901Z,87.39
2018-06-25T05:12:24.460Z,87.99
2018-06-25T05:14:53.897Z,88.15
2018-06-25T05:17:24.138Z,87.75
2018-06-25T05:19:53.606Z,87.26
2018-06-25T05:22:23.050Z,87.07
2018-06-25T05:24:52.894Z,87.47
2018-06-25T05:27:22.418Z,86.40
2018-06-25T05:29:52.552Z,86.88
2018-06-25T05:32:22.019Z,87.37
2018-06-25T05:34:51.552Z,87.35
2018-06-25T05:37:21.038Z,87.39
2018-06-25T05:39:50.642Z,87.21
2018-06-25T05:42:21.573Z,87.09
2018-06-25T05:44:52.352Z,87.49
2018-06-25T05:47:22.439Z,87.10
2018-06-25T05:49:52.042Z,87.35
2018-06-25T05:52:21.678Z,87.26
2018-06-25T05:54:51.272Z,87.02
2018-06-25T05:57:21.013Z,86.43
2018-06-25T05:59:50.593Z,86.70
2018-06-25T06:02:20.042Z,86.26
2018-06-25T06:04:49.832Z,85.83
2018-06-25T06:07:19.288Z,85.31
2018-06-25T06:09:48.843Z,84.84
2018-06-25T06:12:18.764Z,83.97
2018-06-25T06:14:49.172Z,83.88
2018-06-25T06:17:18.741Z,82.85
2018-06-25T06:19:48.741Z,83.14
2018-06-25T06:22:18.177Z,83.22
2018-06-25T06:24:48.480Z,82.63
2018-06-25T06:27:18.632Z,82.85
2018-06-25T06:29:48.151Z,83.25
2018-06-25T06:32:17.674Z,83.43
2018-06-25T06:34:48.042Z,83.06
2018-06-25T06:37:18.222Z,82.88
2018-06-25T06:39:47.740Z,82.83
2018-06-25T06:42:17.242Z,84.00
2018-06-25T06:44:46.820Z,83.78
2018-06-25T06:47:16.214Z,83.45
2018-06-25T06:49:45.718Z,84.18
2018-06-25T06:52:15.290Z,83.88
2018-06-25T06:54:44.443Z,83.74
2018-06-25T06:57:13.879Z,82.79
2018-06-25T06:59:43.701Z,82.59
2018-06-25T07:02:13.320Z,83.00
2018-06-25T07:04:42.468Z,82.94
2018-06-25T07:07:12.622Z,82.81
2018-06-25T07:09:42.699Z,82.62
2018-06-25T07:12:12.186Z,82.45
2018-06-25T07:14:41.719Z,83.22
2018-06-25T07:17:11.232Z,82.81
2018-06-25T07:19:40.722Z,82.64
2018-06-25T07:22:10.302Z,82.89
2018-06-25T07:24:39.894Z,82.42
2018-06-25T07:27:09.524Z,83.17
2018-06-25T07:29:39.689Z,83.44
2018-06-25T07:32:09.224Z,82.87
2018-06-25T07:34:38.675Z,83.34
2018-06-25T07:37:08.196Z,82.90
2018-06-25T07:39:38.226Z,82.86
2018-06-25T07:42:07.710Z,82.03
2018-06-25T07:44:37.196Z,82.10
2018-06-25T07:47:06.867Z,82.61
2018-06-25T07:49:36.990Z,82.84
2018-06-25T07:52:06.686Z,83.18
2018-06-25T07:54:37.215Z,83.61
2018-06-25T07:57:07.089Z,83.89
2018-06-25T07:59:36.606Z,83.56
2018-06-25T08:02:06.134Z,83.80
2018-06-25T08:04:35.741Z,83.31
2018-06-25T08:07:05.268Z,82.97
2018-06-25T08:09:34.729Z,83.24
2018-06-25T08:12:04.298Z,82.75
2018-06-25T08:14:33.754Z,83.18
2018-06-25T08:17:03.318Z,82.47
2018-06-25T08:19:32.512Z,82.30
2018-06-25T08:22:02.328Z,83.17
2018-06-25T08:24:32.205Z,83.44
2018-06-25T08:27:01.919Z,82.92
2018-06-25T08:29:31.438Z,82.41
2018-06-25T08:32:00.924Z,83.19
2018-06-25T08:34:30.627Z,82.62
2018-06-25T08:37:00.136Z,83.23
2018-06-25T08:39:29.650Z,82.58
2018-06-25T08:41:59.190Z,82.05
2018-06-25T08:44:28.624Z,81.89
2018-06-25T08:46:58.155Z,82.28
2018-06-25T08:49:27.894Z,82.05
2018-06-25T08:51:57.360Z,81.82
2018-06-25T08:54:26.869Z,81.70
2018-06-25T08:56:56.435Z,81.59
2018-06-25T08:59:26.176Z,81.76
2018-06-25T09:01:55.839Z,81.56
2018-06-25T09:04:25.500Z,80.72
2018-06-25T09:06:54.983Z,80.66
2018-06-25T09:09:24.680Z,79.97
2018-06-25T09:11:54.282Z,79.36
2018-06-25T09:14:23.960Z,80.68
2018-06-25T09:16:53.678Z,80.35
2018-06-25T09:19:23.284Z,80.17
2018-06-25T09:21:52.853Z,79.51
2018-06-25T09:24:22.515Z,79.99
2018-06-25T09:26:51.997Z,80.37
2018-06-25T09:29:21.637Z,80.44
2018-06-25T09:31:51.250Z,80.07
2018-06-25T09:34:25.901Z,79.46
2018-06-25T09:36:55.193Z,80.28
2018-06-25T09:39:25.580Z,79.51
2018-06-25T09:41:55.177Z,79.83
2018-06-25T09:44:25.004Z,79.68
2018-06-25T09:46:54.712Z,79.59
2018-06-25T09:49:24.174Z,79.38
2018-06-25T09:51:53.539Z,79.00
2018-06-25T09:54:23.190Z,78.14
2018-06-25T09:56:54.501Z,78.34
2018-06-25T09:59:24.209Z,77.33
2018-06-25T10:01:53.885Z,76.81
2018-06-25T10:04:23.890Z,76.87
2018-06-25T10:06:56.275Z,76.75
2018-06-25T10:09:25.775Z,76.67
2018-06-25T10:11:55.212Z,76.69
2018-06-25T10:14:24.732Z,75.86
2018-06-25T10:16:54.253Z,76.08
2018-06-25T10:19:23.710Z,75.85
2018-06-25T10:21:53.216Z,76.44
2018-06-25T10:24:22.872Z,75.81
2018-06-25T10:26:52.561Z,76.01
2018-06-25T10:29:22.177Z,75.50
2018-06-25T10:31:51.680Z,74.87
2018-06-25T10:34:21.194Z,74.49
2018-06-25T10:36:50.692Z,74.54
2018-06-25T10:39:20.169Z,74.08
2018-06-25T10:41:49.686Z,74.05
2018-06-25T10:44:19.190Z,74.93
2018-06-25T10:46:48.752Z,73.98
2018-06-25T10:49:18.113Z,75.22
2018-06-25T10:51:47.645Z,75.35
2018-06-25T10:54:17.135Z,75.18
2018-06-25T10:56:46.649Z,74.86
2018-06-25T10:59:16.150Z,74.08
2018-06-25T11:01:45.733Z,73.68
2018-06-25T11:04:15.289Z,72.49
2018-06-25T11:06:44.700Z,71.54
2018-06-25T11:09:13.882Z,70.24
2018-06-25T11:11:43.366Z,68.67
2018-06-25T11:14:12.868Z,69.89
2018-06-25T11:16:42.450Z,69.00
2018-06-25T11:19:11.862Z,67.68
2018-06-25T11:21:41.817Z,68.58
2018-06-25T11:24:11.241Z,67.85
2018-06-25T11:26:40.708Z,68.23
2018-06-25T11:29:10.369Z,68.17
2018-06-25T11:31:39.527Z,67.97
2018-06-25T11:34:09.010Z,67.28
2018-06-25T11:36:38.429Z,68.62
2018-06-25T11:39:11.273Z,68.63
2018-06-25T11:41:41.088Z,66.42
2018-06-25T11:44:10.859Z,66.79
2018-06-25T11:46:40.423Z,66.96
2018-06-25T11:49:09.969Z,66.30
2018-06-25T11:51:39.596Z,66.58
2018-06-25T11:54:10.452Z,67.43
2018-06-25T11:56:40.446Z,66.82
2018-06-25T11:59:09.969Z,65.90
2018-06-25T12:01:39.561Z,64.70
2018-06-25T12:04:09.937Z,64.94
2018-06-25T12:06:40.426Z,64.88
2018-06-25T12:09:11.157Z,65.75
2018-06-25T12:11:42.022Z,64.77
2018-06-25T12:14:12.551Z,65.54
2018-06-25T12:16:42.101Z,63.78
2018-06-25T12:19:11.684Z,64.74
2018-06-25T12:21:41.296Z,65.40
2018-06-25T12:24:11.286Z,65.43
2018-06-25T12:26:41.377Z,65.00
2018-06-25T12:29:11.046Z,64.44
2018-06-25T12:31:41.482Z,65.07
2018-06-25T12:34:11.093Z,65.19
2018-06-25T12:36:41.039Z,65.13
2018-06-25T12:39:11.108Z,63.37
2018-06-25T12:41:40.707Z,60.81
2018-06-25T12:44:10.282Z,61.34
2018-06-25T12:46:40.197Z,58.63
2018-06-25T12:49:09.969Z,59.96
2018-06-25T12:51:39.586Z,55.46
2018-06-25T12:54:09.741Z,56.56
2018-06-25T12:56:39.198Z,56.66
2018-06-25T12:59:08.726Z,57.66
2018-06-25T13:01:38.658Z,55.41
2018-06-25T13:04:08.268Z,55.60
2018-06-25T13:06:37.870Z,53.45
2018-06-25T13:09:12.287Z,53.73
2018-06-25T13:11:41.763Z,53.60
2018-06-25T13:14:11.190Z,54.72
2018-06-25T13:16:40.660Z,51.35
2018-06-25T13:19:10.062Z,49.84
2018-06-25T13:21:39.705Z,47.56
2018-06-25T13:24:09.302Z,47.92
2018-06-25T13:26:39.490Z,49.98
2018-06-25T13:29:09.486Z,52.47
2018-06-25T13:31:39.261Z,52.99
2018-06-25T13:34:09.185Z,50.99
2018-06-25T13:36:38.680Z,53.03
2018-06-25T13:39:09.771Z,56.20
2018-06-25T13:41:39.464Z,57.19
2018-06-25T13:44:09.305Z,59.02
2018-06-25T13:46:39.474Z,61.95
2018-06-25T13:49:09.241Z,64.71
2018-06-25T13:51:39.195Z,65.32
2018-06-25T13:54:09.240Z,66.13
2018-06-25T13:56:40.518Z,66.77
2018-06-25T13:59:10.570Z,66.92
2018-06-25T14:01:40.081Z,66.71
2018-06-25T14:04:09.647Z,68.27
2018-06-25T14:06:39.309Z,69.59
2018-06-25T14:09:11.105Z,69.47
2018-06-25T14:11:42.240Z,69.44
2018-06-25T14:14:11.825Z,71.07
2018-06-25T14:16:41.560Z,71.23
2018-06-25T14:19:10.781Z,71.82
2018-06-25T14:21:40.386Z,71.37
2018-06-25T14:24:15.365Z,72.04
2018-06-25T14:26:45.678Z,73.32
2018-06-25T14:29:20.801Z,72.85
2018-06-25T14:31:50.557Z,73.54
2018-06-25T14:34:22.774Z,73.57
2018-06-25T14:36:54.259Z,74.94
2018-06-25T14:39:23.809Z,74.75
2018-06-25T14:41:54.391Z,74.43
2018-06-25T14:44:26.684Z,75.72
2018-06-25T14:46:56.586Z,75.84
2018-06-25T14:49:26.126Z,76.39
2018-06-25T14:51:56.273Z,77.26
2018-06-25T14:54:28.380Z,77.58
2018-06-25T14:57:00.694Z,76.89
2018-06-25T14:59:31.317Z,76.74
2018-06-25T15:02:01.261Z,76.64
2018-06-25T15:04:33.272Z,78.25
2018-06-25T15:07:02.720Z,77.62
2018-06-25T15:09:32.220Z,77.27
2018-06-25T15:12:01.694Z,76.87
2018-06-25T15:14:32.165Z,77.86
2018-06-25T15:17:01.646Z,78.67
2018-06-25T15:19:31.265Z,78.23
2018-06-25T15:22:00.758Z,77.84
2018-06-25T15:24:30.260Z,78.32
2018-06-25T15:26:59.994Z,78.11
2018-06-25T15:29:29.465Z,78.34
2018-06-25T15:31:59.267Z,79.04
2018-06-25T15:34:28.710Z,78.54
2018-06-25T15:36:58.314Z,78.38
2018-06-25T15:39:27.922Z,78.93
2018-06-25T15:41:57.410Z,79.51
2018-06-25T15:44:26.925Z,80.25
2018-06-25T15:46:56.441Z,82.36
2018-06-25T15:49:26.053Z,82.74
2018-06-25T15:51:55.776Z,82.89
2018-06-25T15:54:25.383Z,82.45
2018-06-25T15:56:55.019Z,83.24
2018-06-25T15:59:25.065Z,82.76
2018-06-25T16:01:54.707Z,83.03
2018-06-25T16:04:24.146Z,82.31
2018-06-25T16:06:53.776Z,83.42
2018-06-25T16:09:23.249Z,84.31
2018-06-25T16:11:52.663Z,84.36
2018-06-25T16:14:22.506Z,84.94
2018-06-25T16:16:52.049Z,85.48
2018-06-25T16:19:21.874Z,84.96
2018-06-25T16:21:51.969Z,85.13
2018-06-25T16:24:21.551Z,84.89
2018-06-25T16:26:52.246Z,85.08
2018-06-25T16:29:21.849Z,83.63
2018-06-25T16:31:51.362Z,82.76
2018-06-25T16:34:20.863Z,83.11
2018-06-25T16:36:50.748Z,82.13
2018-06-25T16:39:20.289Z,81.84
2018-06-25T16:41:49.689Z,82.36
2018-06-25T16:44:19.305Z,83.32
2018-06-25T16:46:48.880Z,83.54
2018-06-25T16:49:18.421Z,83.90
2018-06-25T16:51:48.445Z,84.66
2018-06-25T16:54:17.959Z,84.35
2018-06-25T16:56:47.420Z,84.37
2018-06-25T16:59:17.565Z,83.22
2018-06-25T17:01:47.652Z,83.74
2018-06-25T17:04:17.233Z,84.09
2018-06-25T17:06:46.388Z,84.66
2018-06-25T17:09:15.819Z,84.42
2018-06-25T17:11:45.385Z,84.11
2018-06-25T17:14:14.994Z,85.83
2018-06-25T17:16:44.918Z,85.57
2018-06-25T17:19:14.488Z,85.86
2018-06-25T17:21:44.043Z,86.85
2018-06-25T17:24:13.538Z,87.81
2018-06-25T17:26:43.034Z,87.55
2018-06-25T17:29:12.651Z,87.73
2018-06-25T17:31:42.157Z,87.77
2018-06-25T17:34:11.917Z,88.18
2018-06-25T17:36:41.619Z,88.77
2018-06-25T17:39:11.219Z,88.89
2018-06-25T17:41:40.837Z,88.83
2018-06-25T17:44:10.337Z,89.59
2018-06-25T17:46:40.525Z,89.35
2018-06-25T17:49:10.040Z,89.04
2018-06-25T17:51:39.879Z,88.74
2018-06-25T17:54:09.369Z,89.50
2018-06-25T17:56:38.984Z,88.54
2018-06-25T17:59:08.437Z,88.53
2018-06-25T18:01:37.702Z,88.45
2018-06-25T18:04:07.236Z,88.62
2018-06-25T18:06:36.611Z,88.17
2018-06-25T18:09:10.047Z,89.24
2018-06-25T18:11:39.486Z,88.59
2018-06-25T18:14:09.105Z,89.65
2018-06-25T18:16:38.640Z,89.86
2018-06-25T18:19:08.061Z,89.24
2018-06-25T18:21:37.310Z,89.61
2018-06-25T18:24:07.082Z,90.18
2018-06-25T18:26:36.836Z,90.09
2018-06-25T18:29:06.541Z,90.52
2018-06-25T18:31:36.166Z,90.84
2018-06-25T18:34:05.633Z,91.47
2018-06-25T18:36:35.209Z,91.68
2018-06-25T18:39:06.640Z,91.35
2018-06-25T18:41:36.131Z,92.35
2018-06-25T18:44:05.849Z,91.87
2018-06-25T18:46:35.778Z,92.28
2018-06-25T18:49:05.390Z,92.24
2018-06-25T18:51:35.017Z,91.99
2018-06-25T18:54:05.214Z,92.85
2018-06-25T18:56:34.748Z,92.33
2018-06-25T18:59:04.919Z,92.32
2018-06-25T19:01:34.870Z,92.75
2018-06-25T19:04:04.611Z,93.05
2018-06-25T19:06:34.076Z,93.22
2018-06-25T19:09:04.016Z,92.92
2018-06-25T19:11:33.208Z,93.00
2018-06-25T19:14:02.710Z,93.18
2018-06-25T19:16:33.037Z,93.12
2018-06-25T19:19:03.261Z,92.74
2018-06-25T19:21:33.989Z,92.28
2018-06-25T19:24:03.517Z,92.16
2018-06-25T19:26:33.325Z,93.07
2018-06-25T19:29:02.662Z,92.46
2018-06-25T19:31:32.129Z,92.86
2018-06-25T19:34:03.250Z,92.43
2018-06-25T19:36:33.453Z,92.84
2018-06-25T19:39:02.997Z,92.91
2018-06-25T19:41:32.698Z,92.72
2018-06-25T19:44:02.854Z,93.42
2018-06-25T19:46:32.418Z,93.28
2018-06-25T19:49:02.215Z,92.68
2018-06-25T19:51:32.480Z,93.22
2018-06-25T19:54:02.289Z,92.70
2018-06-25T19:56:31.775Z,93.18
2018-06-25T19:59:01.248Z,93.71
2018-06-25T20:01:30.830Z,93.37
2018-06-25T20:04:01.549Z,93.88
2018-06-25T20:06:31.188Z,93.73
2018-06-25T20:09:00.843Z,93.48
2018-06-25T20:11:30.458Z,93.87
2018-06-25T20:14:00.071Z,93.74
2018-06-25T20:16:31.933Z,93.96
2018-06-25T20:19:02.535Z,94.10
2018-06-25T20:21:32.577Z,93.97
2018-06-25T20:24:02.360Z,94.76
2018-06-25T20:26:31.945Z,94.53
2018-06-25T20:29:02.727Z,94.75
2018-06-25T20:31:32.307Z,95.07
2018-06-25T20:34:03.049Z,95.06
2018-06-25T20:36:32.741Z,95.07
2018-06-25T20:39:03.295Z,94.69
2018-06-25T20:41:33.643Z,95.19
2018-06-25T20:44:03.516Z,94.71
2018-06-25T20:46:33.374Z,94.18
2018-06-25T20:49:02.848Z,94.95
2018-06-25T20:51:32.593Z,94.58
2018-06-25T20:54:02.810Z,94.19
2018-06-25T20:56:35.320Z,94.61
2018-06-25T20:59:05.688Z,94.50
2018-06-25T21:01:35.777Z,94.48
2018-06-25T21:04:05.069Z,95.01
2018-06-25T21:06:36.537Z,94.57
2018-06-25T21:09:10.204Z,94.83
2018-06-25T21:11:42.475Z,94.59
2018-06-25T21:14:11.989Z,94.52
2018-06-25T21:16:43.348Z,94.63
2018-06-25T21:19:13.219Z,94.82
2018-06-25T21:21:43.919Z,94.58
2018-06-25T21:24:13.992Z,95.21
2018-06-25T21:26:43.978Z,95.47
2018-06-25T21:29:13.479Z,95.03
2018-06-25T21:31:43.053Z,95.67
2018-06-25T21:34:12.301Z,95.14
2018-06-25T21:36:43.363Z,95.47
2018-06-25T21:39:12.947Z,95.56
2018-06-25T21:41:42.907Z,95.85
2018-06-25T21:44:12.381Z,95.12
2018-06-25T21:46:41.829Z,95.55
2018-06-25T21:49:10.973Z,95.54
2018-06-25T21:51:40.425Z,95.52
2018-06-25T21:54:10.319Z,95.91
2018-06-25T21:56:40.441Z,95.53
2018-06-25T21:59:11.080Z,95.95
2018-06-25T22:01:41.466Z,96.10
2018-06-25T22:04:11.016Z,95.40
2018-06-25T22:06:41.679Z,95.87
2018-06-25T22:09:11.574Z,95.43
2018-06-25T22:11:41.724Z,95.58
2018-06-25T22:14:12.035Z,96.32
2018-06-25T22:16:41.575Z,96.30
2018-06-25T22:19:11.806Z,96.71
2018-06-25T22:21:42.088Z,96.12
2018-06-25T22:24:11.413Z,96.54
2018-06-25T22:26:41.271Z,96.15
2018-06-25T22:29:10.610Z,96.71
2018-06-25T22:31:41.013Z,96.15
2018-06-25T22:34:10.563Z,96.36
2018-06-25T22:36:40.455Z,96.83
2018-06-25T22:39:16.588Z,96.32
2018-06-25T22:41:47.439Z,96.82
2018-06-25T22:44:17.355Z,96.59
2018-06-25T22:46:47.445Z,96.88
2018-06-25T22:49:17.456Z,96.49
2018-06-25T22:51:47.484Z,96.44
2018-06-25T22:54:17.069Z,96.65
2018-06-25T22:56:47.417Z,96.57
2018-06-25T22:59:16.927Z,96.00
2018-06-25T23:01:46.821Z,95.90
2018-06-25T23:04:16.342Z,96.58
2018-06-25T23:06:46.618Z,95.92
2018-06-25T23:09:16.987Z,95.81
2018-06-25T23:11:47.756Z,96.21
2018-06-25T23:14:17.264Z,96.25
2018-06-25T23:16:47.369Z,95.80
2018-06-25T23:19:17.415Z,96.21
2018-06-25T23:21:47.582Z,95.42
2018-06-25T23:24:17.151Z,95.62
2018-06-25T23:26:47.090Z,95.39
2018-06-25T23:29:18.829Z,95.91
2018-06-25T23:31:48.632Z,95.67
2018-06-25T23:34:18.670Z,95.48
2018-06-25T23:36:48.664Z,95.32
2018-06-25T23:39:19.641Z,96.22
2018-06-25T23:41:49.478Z,95.75
2018-06-25T23:44:19.200Z,96.19
2018-06-25T23:46:49.141Z,95.78
2018-06-25T23:49:18.663Z,96.00
2018-06-25T23:51:48.853Z,95.49
2018-06-25T23:54:18.335Z,95.56
2018-06-25T23:56:47.899Z,95.55
2018-06-25T23:59:17.316Z,96.34
